x

Edisto - 41 Nm Southeast Of Charleston, Sc (41004) Wave Buoy

12:50pm - Tue 4th Aug 2015 All times are EDT. -4 hours from GMT.

  • Sig Wave height 5.6ft
  • Swell Direction
  • Peak Period 8s
  • Average Period 5s
  • Wind
    16mph, 18mph gusts
  • Sea Temp 83°f
  • Air Temp 81°f
  • Sea Pressure 1014.3mb
  • Edisto - 41 Nm Southeast Of Charleston, Sc
  • Edisto - 41 Nm Southeast Of Charleston, Sc

More Historic Weather Station data

Upgrade to MSW Pro to gain access to the past 30 days of data for over 8000 Wavebouys and Weather Stations around the globe.

Join Pro

Comparision Forecast

View Surf forecast
   
Tue 08/04 12:50pm 5.5ft 8s 5s 16 18 mph 1014.3mb 83f 81f
11:50am 5.5ft 7s 5s 16 20 mph 1014.3mb 83f 81f
10:50am 6ft 8s 5s 16 18 mph 1013.8mb 83f 81f
9:50am 6.5ft 7s 5s 20 22 mph 1013.2mb 83f 81f
8:50am 7ft 6s 5s 20 25 mph 1012.9mb 83f 79f
7:50am 7.5ft 6s 5s 25 29 mph 1012mb 83f 82f
6:50am 8ft 7s 5s 25 29 mph 1011.5mb 83f 82f
5:50am 7.5ft 6s 5s 22 27 mph 1011.3mb 83f 80f
4:50am 6.5ft 7s 5s 25 31 mph 1010.6mb 83f 82f
3:50am 6ft 7s 5s 18 22 mph 1011.7mb 83f 82f
2:50am 6.5ft 7s 6s 13 20 mph 1012.1mb 83f 79f
1:50am 6ft 7s 5s 16 20 mph 1012.7mb 83f 80f
12:50am 5.5ft 7s  -  20 25 mph 1012.5mb 83f 83f
Mon 08/03 11:50pm 5.5ft 7s 5s 20 25 mph 1012.8mb 83f 83f
10:50pm 5ft 7s 5s 20 22 mph 1013.2mb 83f 83f
9:50pm 5ft 7s 5s 16 18 mph 1012.8mb 83f 84f
8:50pm 4.5ft 6s 5s 9 11 mph 1013mb 83f 83f
7:50pm 5ft 6s 5s 18 25 mph 1012.1mb 83f 81f
6:50pm 5ft 6s 5s 11 13 mph 1012.8mb 83f 82f
5:50pm 5ft 6s 5s 20 22 mph 1012.8mb 83f 82f
4:50pm 5ft 6s 5s 11 13 mph 1013.7mb 83f 84f
3:50pm 4.5ft 6s 5s 16 18 mph 1013.1mb 83f 83f
2:50pm 5ft 7s 5s 13 16 mph 1013.3mb 83f 84f
1:50pm 4.5ft 6s 5s 11 13 mph 1014mb 83f 84f
12:50pm 4ft 7s 5s 11 13 mph 1013.9mb 83f 84f
11:50am 4ft 6s 5s 11 13 mph 1013.7mb 83f 82f
10:50am 3.5ft 6s 5s 18 20 mph 1013.6mb 83f 82f
9:50am 4ft 6s 5s 16 18 mph 1013.3mb 83f 83f
8:50am 4ft 7s 5s 20 22 mph 1013.3mb 83f 80f
7:50am 4ft 6s 5s 9 11 mph 1013.3mb 83f 82f
6:50am 4.5ft 7s 5s 13 16 mph 1012.9mb 83f 82f
5:50am 5ft 6s 5s 16 18 mph 1012.4mb 83f 82f
4:50am 5ft 7s 5s 16 18 mph 1012.2mb 83f 83f
3:50am 6ft 6s 5s 20 22 mph 1011.6mb 83f 83f
2:50am 6ft 7s 5s 20 25 mph 1011.5mb 83f 83f
1:50am 7ft 7s 5s 22 27 mph 1011.9mb 83f 83f
12:50am 7ft 6s 5s 25 29 mph 1012.6mb 83f 82f
Sun 08/02 11:50pm 5ft 6s 5s 27 34 mph 1012.8mb 83f 80f
10:50pm 4.5ft 5s 4s 18 20 mph 1013.8mb 83f 78f
9:50pm 4.5ft 5s 4s 25 29 mph 1013.2mb 83f 79f
8:50pm 4ft 6s 4s 22 27 mph 1013.1mb 83f 78f
7:50pm 3ft 5s 5s 27 34 mph 1012.4mb 83f 78f
6:50pm 3ft 6s 5s 9 11 mph 1013.1mb 83f 77f
5:50pm 3ft 6s 5s 7 9 mph 1013.2mb 83f 76f
4:50pm 3.5ft 6s 5s 7 9 mph 1013.6mb 83f 79f
3:50pm 3.5ft 6s 5s 2 4 mph 1013.6mb 83f 79f
2:50pm 3.5ft 6s 5s 7 9 mph 1014.1mb 83f 78f
1:50pm 3.5ft 6s 6s 13 16 mph 1014.2mb 83f 78f
12:50pm 3.5ft 7s 6s 7 11 mph 1014.3mb 83f 79f
11:50am 3.5ft 7s 5s 2 4 mph 1014.5mb 83f 76f
10:50am 4.5ft 7s 6s 11 18 mph 1014.3mb 83f 74f
9:50am 4ft 7s 5s 11 13 mph 1013.6mb 84f 78f
8:50am 4.5ft 7s 5s 11 13 mph 1013.4mb 84f 80f
7:50am 4.5ft 7s 6s 7 9 mph 1012.9mb 84f 82f
6:50am 4.5ft 7s 5s 9 11 mph 1012.7mb 84f 81f
5:50am 4ft 6s 5s 9 11 mph 1012.2mb 84f 80f
4:50am 4ft 7s 5s 16 18 mph 1012.1mb 84f 80f
3:50am 4ft 7s 5s 13 16 mph 1012.3mb 84f 82f
2:50am 3.5ft 6s 5s 13 16 mph 1012.1mb 84f 82f
1:50am 3.5ft 7s 6s 13 18 mph 1012.6mb 84f 82f
12:50am 3.5ft 6s 6s 9 11 mph 1012.9mb 84f 82f
Sat 08/01 11:50pm 3.5ft 7s 6s 9 11 mph 1013mb 84f 81f
10:50pm 3.5ft 6s 6s 7 9 mph 1013.3mb 84f 81f
9:50pm 3.5ft 7s 6s 7
mph
1012.9mb 84f 80f
8:50pm 3.5ft 7s 5s 2
mph
1012.2mb 84f 80f
7:50pm 3.5ft 7s 5s 4
mph
1011.9mb 84f 80f
6:50pm 3.5ft 6s 5s 7 9 mph 1011.6mb 84f 80f
5:50pm 4ft 6s 5s 9 11 mph 1012.1mb 84f 80f
4:50pm 3.5ft 7s 5s 7 9 mph 1012.7mb 84f 80f
3:50pm 3.5ft 6s 5s 7 9 mph 1012.7mb 84f 80f
2:50pm 3.5ft 6s 5s 7 9 mph 1013mb 84f 79f
1:50pm 3.5ft 7s 5s 4 7 mph 1013.5mb 84f 78f
12:50pm 3.5ft 7s 5s 16 18 mph 1014.3mb 84f 78f
11:50am 3.5ft 6s 5s 11 16 mph 1013.9mb 84f 77f
10:50am 3ft 7s 5s 18 22 mph 1014mb 84f 76f
9:50am 3.5ft 7s 5s 4 7 mph 1013.3mb 84f 81f
8:50am 4ft 7s 5s 18 25 mph 1012.4mb 84f 78f
7:50am 4ft 7s 5s 16 20 mph 1012.2mb 84f 82f
6:50am 3.5ft 7s 4s 16 20 mph 1011.9mb 84f 83f
5:50am 3.5ft 7s 5s 18 22 mph 1011.7mb 84f 83f
4:50am 4.5ft 7s 5s 16 18 mph 1011.2mb 84f 81f
3:50am 4ft 7s 5s 13 16 mph 1012mb 84f 83f
2:50am 4.5ft 8s 6s 11 13 mph 1012.9mb 84f 83f
1:50am 4.5ft 8s 5s 13 18 mph 1013mb 84f 83f
12:50am 4.5ft 8s 5s 16
mph
1013.3mb 84f 83f
Fri 07/31 11:50pm 4ft 8s 5s 16 20 mph 1013.3mb 84f 84f
10:50pm 3.5ft 7s 5s 16 18 mph 1013.9mb 84f 84f
9:50pm 3.5ft 8s 4s 16 18 mph 1013.6mb 84f 83f
8:50pm 3ft 8s 4s 18 20 mph 1012.6mb 84f 83f
7:50pm 3ft 8s 4s 16 18 mph 1012.5mb 84f 82f
6:50pm 3ft 8s 4s 20 22 mph 1011.9mb 84f 83f